createdAt,value
2018-11-22T12:17:09.921Z,16.67
2018-11-22T12:19:38.408Z,16.77
2018-11-22T12:22:06.895Z,16.23
2018-11-22T12:24:35.607Z,14.60
2018-11-22T12:27:04.233Z,13.57
2018-11-22T12:29:32.725Z,15.40
2018-11-22T12:32:06.410Z,13.73
2018-11-22T12:34:40.247Z,15.07
2018-11-22T12:37:16.753Z,14.20
2018-11-22T12:39:45.317Z,14.10
2018-11-22T12:42:13.773Z,13.27
2018-11-22T12:44:42.231Z,13.77
2018-11-22T12:47:10.731Z,14.57
2018-11-22T12:49:39.177Z,12.93
2018-11-22T12:52:07.744Z,13.73
2018-11-22T12:54:37.331Z,14.40
2018-11-22T12:57:06.057Z,13.70
2018-11-22T12:59:34.515Z,14.30
2018-11-22T13:02:03.122Z,13.73
2018-11-22T13:04:31.626Z,15.70
2018-11-22T13:07:00.117Z,14.87
2018-11-22T13:09:28.577Z,13.70
2018-11-22T13:11:57.062Z,13.30
2018-11-22T13:14:25.527Z,13.33
2018-11-22T13:16:54.057Z,13.53
2018-11-22T13:19:22.520Z,13.83
2018-11-22T13:21:51.251Z,14.50
2018-11-22T13:24:19.756Z,13.53
2018-11-22T13:26:48.278Z,13.13
2018-11-22T13:29:17.741Z,13.70
2018-11-22T13:31:46.442Z,13.40
2018-11-22T13:34:15.110Z,13.37
2018-11-22T13:36:43.603Z,13.57
2018-11-22T13:39:12.380Z,13.20
2018-11-22T13:41:40.873Z,13.03
2018-11-22T13:44:09.386Z,14.27
2018-11-22T13:46:37.875Z,13.93
2018-11-22T13:49:06.823Z,14.37
2018-11-22T13:51:35.441Z,16.17
2018-11-22T13:54:03.948Z,14.37
2018-11-22T13:56:32.481Z,13.27
2018-11-22T13:59:01.018Z,13.87
2018-11-22T14:01:30.300Z,13.50
2018-11-22T14:03:59.159Z,13.77
2018-11-22T14:06:27.843Z,13.80
2018-11-22T14:08:56.594Z,13.50
2018-11-22T14:11:25.085Z,13.43
2018-11-22T14:13:53.658Z,14.63
2018-11-22T14:16:22.232Z,14.57
2018-11-22T14:18:50.811Z,15.27
2018-11-22T14:21:19.527Z,14.10
2018-11-22T14:23:48.205Z,15.00
2018-11-22T14:26:16.954Z,14.60
2018-11-22T14:28:45.463Z,15.17
2018-11-22T14:31:13.934Z,14.40
2018-11-22T14:33:44.375Z,14.60
2018-11-22T14:36:13.082Z,14.53
2018-11-22T14:38:41.590Z,14.67
2018-11-22T14:41:10.137Z,14.47
2018-11-22T14:43:38.702Z,15.30
2018-11-22T14:46:07.174Z,14.20
2018-11-22T14:48:35.701Z,15.80
2018-11-22T14:51:43.235Z,15.33
2018-11-22T14:54:11.730Z,15.00
2018-11-22T14:56:40.227Z,15.97
2018-11-22T14:59:08.764Z,16.90
2018-11-22T15:01:37.450Z,15.07
2018-11-22T15:04:06.083Z,16.07
2018-11-22T15:06:34.590Z,16.30
2018-11-22T15:09:03.212Z,17.83
2018-11-22T15:11:32.761Z,16.30
2018-11-22T15:14:01.234Z,16.73
2018-11-22T15:16:29.751Z,17.87
2018-11-22T15:18:58.475Z,17.13
2018-11-22T15:21:26.989Z,17.07
2018-11-22T15:23:55.480Z,17.17
2018-11-22T15:26:23.922Z,17.20
2018-11-22T15:28:52.493Z,16.50
2018-11-22T15:31:20.971Z,16.53
2018-11-22T15:33:49.492Z,17.10
2018-11-22T15:36:18.032Z,17.53
2018-11-22T15:38:46.583Z,17.27
2018-11-22T15:41:15.067Z,18.00
2018-11-22T15:43:43.579Z,18.20
2018-11-22T15:46:12.062Z,18.80
2018-11-22T15:48:40.663Z,18.07
2018-11-22T15:51:09.164Z,17.93
2018-11-22T15:53:38.536Z,18.47
2018-11-22T15:56:07.025Z,18.57
2018-11-22T15:58:35.555Z,17.30
2018-11-22T16:01:04.035Z,18.90
2018-11-22T16:03:32.533Z,19.23
2018-11-22T16:06:01.026Z,18.77
2018-11-22T16:08:29.558Z,19.70
2018-11-22T16:10:58.069Z,18.80
2018-11-22T16:13:26.608Z,18.40
2018-11-22T16:15:55.527Z,18.87
2018-11-22T16:18:24.103Z,18.93
2018-11-22T16:20:52.690Z,17.73
2018-11-22T16:23:21.204Z,18.40
2018-11-22T16:25:49.669Z,18.70
2018-11-22T16:28:18.223Z,19.07
2018-11-22T16:30:46.870Z,18.13
2018-11-22T16:33:16.130Z,19.20
2018-11-22T16:35:44.994Z,19.40
2018-11-22T16:38:13.562Z,20.00
2018-11-22T16:40:42.101Z,18.27
2018-11-22T16:43:10.725Z,20.33
2018-11-22T16:45:39.702Z,20.40
2018-11-22T16:48:09.898Z,20.50
2018-11-22T16:50:39.567Z,19.83
2018-11-22T16:53:08.133Z,21.00
2018-11-22T16:55:36.638Z,20.77
2018-11-22T16:58:06.587Z,22.73
2018-11-22T17:00:38.204Z,22.87
2018-11-22T17:03:08.849Z,21.50
2018-11-22T17:05:38.342Z,21.53
2018-11-22T17:08:09.007Z,20.33
2018-11-22T17:10:38.231Z,20.23
2018-11-22T17:13:07.231Z,23.90
2018-11-22T17:15:37.270Z,26.93
2018-11-22T17:19:30.490Z,27.53
2018-11-22T17:21:59.103Z,23.80
2018-11-22T17:24:27.611Z,25.27
2018-11-22T17:26:56.230Z,25.53
2018-11-22T17:29:25.434Z,23.20
2018-11-22T17:31:54.031Z,23.43
2018-11-22T17:34:22.638Z,21.03
2018-11-22T17:36:51.415Z,21.93
2018-11-22T17:39:20.620Z,22.27
2018-11-22T17:41:56.128Z,22.53
2018-11-22T17:44:24.708Z,22.63
2018-11-22T17:46:53.445Z,22.17
2018-11-22T17:49:22.094Z,22.20
2018-11-22T17:51:50.649Z,22.00
2018-11-22T17:54:19.291Z,21.40
2018-11-22T17:56:47.754Z,22.17
2018-11-22T17:59:16.367Z,22.47
2018-11-22T18:01:45.180Z,23.47
2018-11-22T18:04:14.210Z,23.80
2018-11-22T18:06:42.776Z,21.87
2018-11-22T18:09:11.953Z,23.07
2018-11-22T18:11:41.125Z,22.87
2018-11-22T18:14:09.871Z,23.17
2018-11-22T18:16:38.743Z,23.43
2018-11-22T18:19:07.338Z,22.20
2018-11-22T18:21:36.770Z,24.10
2018-11-22T18:24:05.537Z,22.63
2018-11-22T18:26:34.127Z,22.77
2018-11-22T18:29:03.035Z,22.40
2018-11-22T18:31:31.604Z,20.83
2018-11-22T18:34:00.450Z,21.73
2018-11-22T18:36:29.006Z,23.33
2018-11-22T18:38:57.591Z,24.87
2018-11-22T18:41:26.114Z,25.43
2018-11-22T18:43:54.700Z,23.40
2018-11-22T18:46:23.218Z,24.37
2018-11-22T18:48:51.886Z,24.53
2018-11-22T18:51:20.476Z,24.67
2018-11-22T18:53:49.202Z,23.27
2018-11-22T18:56:17.870Z,22.63
2018-11-22T18:58:46.427Z,24.17
2018-11-22T19:01:15.117Z,22.40
2018-11-22T19:03:43.742Z,21.53
2018-11-22T19:06:12.598Z,23.80
2018-11-22T19:08:41.159Z,23.63
2018-11-22T19:11:09.844Z,24.77
2018-11-22T19:13:38.390Z,23.57
2018-11-22T19:16:07.121Z,23.83
2018-11-22T19:18:35.647Z,23.40
2018-11-22T19:21:04.221Z,22.67
2018-11-22T19:23:40.110Z,22.40
2018-11-22T19:26:08.964Z,23.40
2018-11-22T19:28:37.784Z,23.80
2018-11-22T19:31:06.903Z,24.97
2018-11-22T19:33:35.435Z,22.47
2018-11-22T19:36:05.028Z,23.30
2018-11-22T19:38:33.646Z,21.73
2018-11-22T19:41:05.233Z,23.23
2018-11-22T19:43:33.812Z,23.40
2018-11-22T19:46:02.398Z,22.57
2018-11-22T19:48:30.991Z,22.43
2018-11-22T19:51:05.638Z,21.80
2018-11-22T19:53:28.199Z,22.83
2018-11-22T19:55:56.767Z,21.23
2018-11-22T19:58:26.885Z,22.87
2018-11-22T20:00:55.437Z,22.17
2018-11-22T20:03:24.047Z,22.50
2018-11-22T20:05:52.591Z,23.60
2018-11-22T20:08:21.134Z,21.40
2018-11-22T20:10:50.102Z,21.33
2018-11-22T20:13:18.667Z,21.40
2018-11-22T20:15:47.165Z,21.33
2018-11-22T20:18:15.725Z,22.00
2018-11-22T20:20:49.892Z,21.47
2018-11-22T20:23:17.623Z,23.03
2018-11-22T20:25:43.116Z,22.40
2018-11-22T20:28:11.635Z,22.27
2018-11-22T20:30:41.823Z,21.07
2018-11-22T20:33:10.298Z,21.77
2018-11-22T20:35:38.892Z,20.97
2018-11-22T20:38:07.559Z,22.10
2018-11-22T20:40:36.087Z,22.33
2018-11-22T20:43:04.970Z,21.30
2018-11-22T20:45:36.909Z,22.43
2018-11-22T20:48:04.430Z,23.77
2018-11-22T20:50:33.558Z,23.70
2018-11-22T20:53:02.059Z,24.23
2018-11-22T20:55:32.047Z,22.83
2018-11-22T20:58:02.278Z,22.53
2018-11-22T21:00:32.504Z,23.80
2018-11-22T21:03:01.018Z,22.80
2018-11-22T21:05:30.175Z,23.03
2018-11-22T21:07:58.667Z,22.40
2018-11-22T21:10:29.597Z,21.50
2018-11-22T21:12:58.112Z,21.20
2018-11-22T21:15:27.994Z,21.47
2018-11-22T21:17:59.961Z,21.27
2018-11-22T21:20:31.309Z,21.60
2018-11-22T21:22:59.810Z,22.37
2018-11-22T21:25:28.293Z,23.77
2018-11-22T21:27:56.895Z,24.27
2018-11-22T21:30:28.114Z,23.90
2018-11-22T21:32:59.127Z,23.53
2018-11-22T21:35:27.691Z,22.47
2018-11-22T21:37:57.031Z,22.87
2018-11-22T21:40:26.191Z,21.90
2018-11-22T21:42:54.738Z,21.93
2018-11-22T21:45:40.147Z,22.63
2018-11-22T21:48:08.715Z,22.60
2018-11-22T21:50:37.213Z,22.30
2018-11-22T21:53:05.817Z,20.87
2018-11-22T21:55:34.384Z,28.40
2018-11-22T21:58:03.775Z,22.87
2018-11-22T22:00:38.143Z,22.10
2018-11-22T22:03:08.183Z,22.20
2018-11-22T22:05:36.806Z,21.63
2018-11-22T22:08:07.317Z,21.73
2018-11-22T22:10:35.868Z,21.70
2018-11-22T22:13:04.646Z,22.03
2018-11-22T22:15:34.218Z,23.03
2018-11-22T22:18:02.745Z,22.60
2018-11-22T22:20:34.166Z,23.47
2018-11-22T22:23:02.769Z,22.60
2018-11-22T22:25:32.077Z,23.53
2018-11-22T22:28:01.069Z,23.07
2018-11-22T22:30:31.250Z,23.80
2018-11-22T22:33:01.288Z,25.90
2018-11-22T22:35:29.777Z,26.53
2018-11-22T22:37:58.295Z,26.10
2018-11-22T22:40:28.038Z,26.23
2018-11-22T22:42:57.366Z,25.50
2018-11-22T22:45:26.944Z,25.93
2018-11-22T22:47:55.526Z,39.50
2018-11-22T22:50:27.644Z,57.13
2018-11-22T22:52:57.286Z,51.53
2018-11-22T22:55:25.927Z,30.77
2018-11-22T22:57:54.502Z,32.43
2018-11-22T23:00:30.466Z,28.33
2018-11-22T23:03:02.451Z,30.73
2018-11-22T23:05:31.388Z,32.87
2018-11-22T23:07:59.912Z,32.07
2018-11-22T23:10:28.446Z,28.33
2018-11-22T23:12:59.625Z,28.97
2018-11-22T23:15:29.195Z,25.73
2018-11-22T23:17:57.733Z,25.57
2018-11-22T23:20:27.632Z,29.23
2018-11-22T23:22:56.725Z,28.57
2018-11-22T23:25:26.314Z,29.40
2018-11-22T23:27:54.803Z,27.80
2018-11-22T23:30:25.993Z,24.93
2018-11-22T23:33:01.908Z,24.07
2018-11-22T23:35:30.445Z,25.43
2018-11-22T23:37:58.924Z,25.53
2018-11-22T23:40:28.642Z,24.80
2018-11-22T23:42:57.247Z,23.07
2018-11-22T23:45:30.685Z,23.03
2018-11-22T23:47:59.190Z,22.70
2018-11-22T23:50:31.037Z,23.23
2018-11-22T23:53:00.667Z,22.93
2018-11-22T23:55:31.113Z,22.83
2018-11-22T23:57:59.623Z,22.77
